createdAt,value
2018-04-02T00:00:17.054Z,8.00
2018-04-02T00:01:17.037Z,8.00
2018-04-02T00:02:17.015Z,8.00
2018-04-02T00:03:16.995Z,8.00
2018-04-02T00:04:16.977Z,8.00
2018-04-02T00:05:16.956Z,8.00
2018-04-02T00:06:16.933Z,8.00
2018-04-02T00:07:16.913Z,8.00
2018-04-02T00:08:16.887Z,8.00
2018-04-02T00:09:16.870Z,8.00
2018-04-02T00:10:16.846Z,8.00
2018-04-02T00:11:16.830Z,8.00
2018-04-02T00:12:16.801Z,8.00
2018-04-02T00:13:16.781Z,8.00
2018-04-02T00:14:16.763Z,8.00
2018-04-02T00:15:16.738Z,8.00
2018-04-02T00:16:16.719Z,8.00
2018-04-02T00:17:16.703Z,8.00
2018-04-02T00:18:16.672Z,8.00
2018-04-02T00:19:16.651Z,8.00
2018-04-02T00:20:16.747Z,8.00
2018-04-02T00:21:16.609Z,8.00
2018-04-02T00:22:16.593Z,8.00
2018-04-02T00:23:16.616Z,8.00
2018-04-02T00:24:16.546Z,8.00
2018-04-02T00:25:16.525Z,8.00
2018-04-02T00:26:16.501Z,8.00
2018-04-02T00:27:16.479Z,8.00
2018-04-02T00:28:16.458Z,8.00
2018-04-02T00:29:16.438Z,8.00
2018-04-02T00:30:16.421Z,8.00
2018-04-02T00:31:16.397Z,8.00
2018-04-02T00:32:16.373Z,8.00
2018-04-02T00:33:16.359Z,8.00
2018-04-02T00:34:16.332Z,8.00
2018-04-02T00:35:16.310Z,8.00
2018-04-02T00:36:16.294Z,8.00
2018-04-02T00:37:16.266Z,8.00
2018-04-02T00:38:16.247Z,8.00
2018-04-02T00:39:16.228Z,8.00
2018-04-02T00:40:16.207Z,8.00
2018-04-02T00:41:16.185Z,8.00
2018-04-02T00:42:16.167Z,8.00
2018-04-02T00:43:16.140Z,8.00
2018-04-02T00:44:16.264Z,8.00
2018-04-02T00:45:16.102Z,8.00
2018-04-02T00:46:16.086Z,8.00
2018-04-02T00:47:16.120Z,8.00
2018-04-02T00:48:16.036Z,8.00
2018-04-02T00:49:16.011Z,8.00
2018-04-02T00:50:16.045Z,8.00
2018-04-02T00:51:15.968Z,8.00
2018-04-02T00:52:15.948Z,8.00
2018-04-02T00:53:15.932Z,8.00
2018-04-02T00:54:15.918Z,8.00
2018-04-02T00:55:15.886Z,8.00
2018-04-02T00:56:15.864Z,8.00
2018-04-02T00:57:15.844Z,8.00
2018-04-02T00:58:15.820Z,8.00
2018-04-02T00:59:15.808Z,8.00
2018-04-02T01:00:15.777Z,8.00
2018-04-02T01:01:15.758Z,8.00
2018-04-02T01:02:15.735Z,8.00
2018-04-02T01:03:15.714Z,8.00
2018-04-02T01:04:15.694Z,8.00
2018-04-02T01:05:15.678Z,8.00
2018-04-02T01:06:15.655Z,8.00
2018-04-02T01:07:15.629Z,8.00
2018-04-02T01:08:15.624Z,8.00
2018-04-02T01:09:15.586Z,8.00
2018-04-02T01:10:15.724Z,8.00
2018-04-02T01:11:15.547Z,8.00
2018-04-02T01:12:15.522Z,8.00
2018-04-02T01:13:15.509Z,8.00
2018-04-02T01:14:15.483Z,8.00
2018-04-02T01:15:15.458Z,8.00
2018-04-02T01:16:15.493Z,8.00
2018-04-02T01:17:15.416Z,8.00
2018-04-02T01:18:15.397Z,8.00
2018-04-02T01:19:15.373Z,8.00
2018-04-02T01:20:15.353Z,8.00
2018-04-02T01:21:15.333Z,8.00
2018-04-02T01:22:15.320Z,8.00
2018-04-02T01:23:15.291Z,8.00
2018-04-02T01:24:15.266Z,8.00
2018-04-02T01:25:15.244Z,8.00
2018-04-02T01:26:15.224Z,8.00
2018-04-02T01:27:15.205Z,8.00
2018-04-02T01:28:15.181Z,8.00
2018-04-02T01:29:15.163Z,8.00
2018-04-02T01:30:15.141Z,8.00
2018-04-02T01:31:15.116Z,8.00
2018-04-02T01:32:15.203Z,8.00
2018-04-02T01:33:15.073Z,8.00
2018-04-02T01:34:15.052Z,8.00
2018-04-02T01:35:15.194Z,8.00
2018-04-02T01:36:15.023Z,8.00
2018-04-02T01:37:14.991Z,8.00
2018-04-02T01:38:14.975Z,8.00
2018-04-02T01:39:14.945Z,8.00
2018-04-02T01:40:14.925Z,8.00
2018-04-02T01:41:14.902Z,8.00
2018-04-02T01:42:14.881Z,8.00
2018-04-02T01:43:14.859Z,8.00
2018-04-02T01:44:14.840Z,8.00
2018-04-02T01:45:14.869Z,8.00
2018-04-02T01:46:14.794Z,8.00
2018-04-02T01:47:14.771Z,8.00
2018-04-02T01:48:14.750Z,8.00
2018-04-02T01:49:14.733Z,8.00
2018-04-02T01:50:14.713Z,8.00
2018-04-02T01:51:14.688Z,8.00
2018-04-02T01:52:14.668Z,8.00
2018-04-02T01:53:14.649Z,8.00
2018-04-02T01:54:14.629Z,8.00
2018-04-02T01:55:14.600Z,8.00
2018-04-02T01:56:14.580Z,8.00
2018-04-02T01:57:14.557Z,8.00
2018-04-02T01:58:14.614Z,8.00
2018-04-02T01:59:14.518Z,8.00
2018-04-02T02:00:14.492Z,8.00
2018-04-02T02:01:14.483Z,8.00
2018-04-02T02:02:14.454Z,8.00
2018-04-02T02:03:14.446Z,8.00
2018-04-02T02:04:14.406Z,8.00
2018-04-02T02:05:14.394Z,8.00
2018-04-02T02:06:14.368Z,8.00
2018-04-02T02:07:14.348Z,8.00
2018-04-02T02:08:14.322Z,8.00
2018-04-02T02:09:14.299Z,8.00
2018-04-02T02:10:14.279Z,8.00
2018-04-02T02:11:14.259Z,8.00
2018-04-02T02:12:14.236Z,8.00
2018-04-02T02:13:14.223Z,8.00
2018-04-02T02:14:14.191Z,8.00
2018-04-02T02:15:14.168Z,8.00
2018-04-02T02:16:14.149Z,8.00
2018-04-02T02:17:14.129Z,8.00
2018-04-02T02:18:14.105Z,8.00
2018-04-02T02:19:14.085Z,8.00
2018-04-02T02:20:14.064Z,8.00
2018-04-02T02:21:14.042Z,8.00
2018-04-02T02:22:14.025Z,8.00
2018-04-02T02:23:13.997Z,8.00
2018-04-02T02:24:13.976Z,8.00
2018-04-02T02:25:13.969Z,8.00
2018-04-02T02:26:13.934Z,8.00
2018-04-02T02:27:13.914Z,8.00
2018-04-02T02:28:13.994Z,8.00
2018-04-02T02:29:13.869Z,8.00
2018-04-02T02:30:13.851Z,8.00
2018-04-02T02:31:13.824Z,8.00
2018-04-02T02:32:13.803Z,8.00
2018-04-02T02:33:13.783Z,8.00
2018-04-02T02:34:13.764Z,8.00
2018-04-02T02:35:13.739Z,8.00
2018-04-02T02:36:13.725Z,8.00
2018-04-02T02:37:13.699Z,8.00
2018-04-02T02:38:13.735Z,8.00
2018-04-02T02:39:13.652Z,8.00
2018-04-02T02:40:13.634Z,8.00
2018-04-02T02:41:13.625Z,8.00
2018-04-02T02:42:13.591Z,8.00
2018-04-02T02:43:13.567Z,8.00
2018-04-02T02:44:13.548Z,8.00
2018-04-02T02:45:13.524Z,8.00
2018-04-02T02:46:13.507Z,8.00
2018-04-02T02:47:13.484Z,8.00
2018-04-02T02:48:13.463Z,8.00
2018-04-02T02:49:13.441Z,8.00
2018-04-02T02:50:13.417Z,8.00
2018-04-02T02:51:13.397Z,8.00
2018-04-02T02:52:13.375Z,8.00
2018-04-02T02:53:13.353Z,8.00
2018-04-02T02:54:13.330Z,8.00
2018-04-02T02:55:13.310Z,8.00
2018-04-02T02:56:13.297Z,8.00
2018-04-02T02:57:13.270Z,8.00
2018-04-02T02:58:13.257Z,8.00
2018-04-02T02:59:13.223Z,8.00
2018-04-02T03:00:13.224Z,8.00
2018-04-02T03:01:13.180Z,8.00
2018-04-02T03:02:13.171Z,8.00
2018-04-02T03:03:13.143Z,8.00
2018-04-02T03:04:13.117Z,8.00
2018-04-02T03:05:13.092Z,8.00
2018-04-02T03:06:13.072Z,8.00
2018-04-02T03:07:13.053Z,8.00
2018-04-02T03:08:13.030Z,8.00
2018-04-02T03:09:13.019Z,8.00
2018-04-02T03:10:12.989Z,8.00
2018-04-02T03:11:12.963Z,8.00
2018-04-02T03:12:12.944Z,8.00
2018-04-02T03:13:12.921Z,8.00
2018-04-02T03:14:12.899Z,8.00
2018-04-02T03:15:12.877Z,8.00
2018-04-02T03:16:12.855Z,8.00
2018-04-02T03:17:12.833Z,8.00
2018-04-02T03:18:12.812Z,8.00
2018-04-02T03:19:12.835Z,8.00
2018-04-02T03:20:12.788Z,8.00
2018-04-02T03:21:12.748Z,8.00
2018-04-02T03:22:12.731Z,8.00
2018-04-02T03:23:12.706Z,8.00
2018-04-02T03:24:12.682Z,8.00
2018-04-02T03:25:12.677Z,8.00
2018-04-02T03:26:12.638Z,8.00
2018-04-02T03:27:12.616Z,8.00
2018-04-02T03:28:12.594Z,8.00
2018-04-02T03:29:12.577Z,8.00
2018-04-02T03:30:12.577Z,8.00
2018-04-02T03:31:12.531Z,8.00
2018-04-02T03:32:12.508Z,8.00
2018-04-02T03:33:12.572Z,8.00
2018-04-02T03:34:12.465Z,8.00
2018-04-02T03:35:12.446Z,8.00
2018-04-02T03:36:12.420Z,8.00
2018-04-02T03:37:12.398Z,8.00
2018-04-02T03:38:12.377Z,8.00
2018-04-02T03:39:12.356Z,8.00
2018-04-02T03:40:12.335Z,8.00
2018-04-02T03:41:12.313Z,8.00
2018-04-02T03:42:12.297Z,8.00
2018-04-02T03:43:12.269Z,8.00
2018-04-02T03:44:12.247Z,8.00
2018-04-02T03:45:12.227Z,8.00
2018-04-02T03:46:12.204Z,8.00
2018-04-02T03:47:12.185Z,8.00
2018-04-02T03:48:12.164Z,8.00
2018-04-02T03:49:12.140Z,8.00
2018-04-02T03:50:12.120Z,8.00
2018-04-02T03:51:12.098Z,8.00
2018-04-02T03:52:12.145Z,8.00
2018-04-02T03:53:12.055Z,8.00
2018-04-02T03:54:12.034Z,8.00
2018-04-02T03:55:12.027Z,8.00
2018-04-02T03:56:11.987Z,8.00
2018-04-02T03:57:11.968Z,8.00
2018-04-02T03:58:11.969Z,8.00
2018-04-02T03:59:11.923Z,8.00
2018-04-02T04:00:11.912Z,8.00
2018-04-02T04:01:11.887Z,8.00
2018-04-02T04:02:11.862Z,8.00
2018-04-02T04:03:11.837Z,8.00
2018-04-02T04:04:11.825Z,8.00
2018-04-02T04:05:11.795Z,8.00
2018-04-02T04:06:11.782Z,8.00
2018-04-02T04:07:11.779Z,8.00
2018-04-02T04:08:11.737Z,8.00
2018-04-02T04:09:11.711Z,8.00
2018-04-02T04:10:11.691Z,8.00
2018-04-02T04:11:11.674Z,8.00
2018-04-02T04:12:11.646Z,8.00
2018-04-02T04:13:11.625Z,8.00
2018-04-02T04:14:11.601Z,8.00
2018-04-02T04:15:11.580Z,8.00
2018-04-02T04:16:11.560Z,8.00
2018-04-02T04:17:11.540Z,8.00
2018-04-02T04:18:11.515Z,8.00
2018-04-02T04:19:11.499Z,8.00
2018-04-02T04:20:11.477Z,8.00
2018-04-02T04:21:11.453Z,8.00
2018-04-02T04:22:11.447Z,8.00
2018-04-02T04:23:11.406Z,8.00
2018-04-02T04:24:11.391Z,8.00
2018-04-02T04:25:11.386Z,8.00
2018-04-02T04:26:11.344Z,8.00
2018-04-02T04:27:11.323Z,8.00
2018-04-02T04:28:11.405Z,8.00
2018-04-02T04:29:11.276Z,8.00
2018-04-02T04:30:11.257Z,12.00
2018-04-02T04:31:11.238Z,8.00
2018-04-02T04:32:11.214Z,8.00
2018-04-02T04:33:11.192Z,8.00
2018-04-02T04:34:11.173Z,8.00
2018-04-02T04:35:11.147Z,8.00
2018-04-02T04:36:11.129Z,12.00
2018-04-02T04:37:11.109Z,12.00
2018-04-02T04:38:11.085Z,12.00
2018-04-02T04:39:11.061Z,12.00
2018-04-02T04:40:11.041Z,16.00
2018-04-02T04:41:11.020Z,16.00
2018-04-02T04:42:10.996Z,20.00
2018-04-02T04:43:10.976Z,20.00
2018-04-02T04:44:10.960Z,24.00
2018-04-02T04:45:10.932Z,20.00
2018-04-02T04:46:10.911Z,24.00
2018-04-02T04:47:11.039Z,20.00
2018-04-02T04:48:10.866Z,20.00
2018-04-02T04:49:10.846Z,24.00
2018-04-02T04:50:10.887Z,28.00
2018-04-02T04:51:10.801Z,28.00
2018-04-02T04:52:10.779Z,32.00
2018-04-02T04:53:10.759Z,28.00
2018-04-02T04:54:10.738Z,36.00
2018-04-02T04:55:10.715Z,36.00
2018-04-02T04:56:10.695Z,40.00
2018-04-02T04:57:10.672Z,44.00
2018-04-02T04:58:10.647Z,48.00
2018-04-02T04:59:10.626Z,56.00
2018-04-02T05:00:10.607Z,72.00
2018-04-02T05:01:10.585Z,96.00
2018-04-02T05:02:10.565Z,116.00
2018-04-02T05:03:10.541Z,116.00
2018-04-02T05:04:10.517Z,124.00
2018-04-02T05:05:10.494Z,132.00
2018-04-02T05:06:10.474Z,140.00
2018-04-02T05:07:10.455Z,148.00
2018-04-02T05:08:10.430Z,164.00
2018-04-02T05:09:10.409Z,180.00
2018-04-02T05:10:10.386Z,200.00
2018-04-02T05:11:10.365Z,236.00
2018-04-02T05:12:10.343Z,276.00
2018-04-02T05:13:10.321Z,292.00
2018-04-02T05:14:10.301Z,284.00
2018-04-02T05:15:10.275Z,288.00
2018-04-02T05:16:10.261Z,300.00
2018-04-02T05:17:10.399Z,320.00
2018-04-02T05:18:10.221Z,328.00
2018-04-02T05:19:10.192Z,340.00
2018-04-02T05:20:10.189Z,348.00
2018-04-02T05:21:10.146Z,344.00
2018-04-02T05:22:10.124Z,320.00
2018-04-02T05:23:10.103Z,356.00
2018-04-02T05:24:10.083Z,468.00
2018-04-02T05:25:10.065Z,544.00
2018-04-02T05:26:10.036Z,592.00
2018-04-02T05:27:10.014Z,588.00
2018-04-02T05:28:09.998Z,552.00
2018-04-02T05:29:09.988Z,508.00
2018-04-02T05:30:09.954Z,500.00
2018-04-02T05:31:09.927Z,556.00
2018-04-02T05:32:09.904Z,600.00
2018-04-02T05:33:09.882Z,628.00
2018-04-02T05:34:09.860Z,672.00
2018-04-02T05:35:09.862Z,716.00
2018-04-02T05:36:09.918Z,784.00
2018-04-02T05:37:09.795Z,800.00
2018-04-02T05:38:09.774Z,796.00
2018-04-02T05:39:09.806Z,848.00
2018-04-02T05:40:09.731Z,964.00
2018-04-02T05:41:09.711Z,1084.00
2018-04-02T05:42:09.691Z,1164.00
2018-04-02T05:43:09.662Z,1228.00
2018-04-02T05:44:09.643Z,1256.00
2018-04-02T05:45:09.621Z,1272.00
2018-04-02T05:46:09.600Z,1320.00
2018-04-02T05:47:09.618Z,1372.00
2018-04-02T05:48:09.554Z,1316.00
2018-04-02T05:49:09.531Z,1256.00
2018-04-02T05:50:09.509Z,1288.00
2018-04-02T05:51:09.489Z,1368.00
2018-04-02T05:52:09.474Z,1368.00
2018-04-02T05:53:09.444Z,1452.00
2018-04-02T05:54:09.423Z,1560.00
2018-04-02T05:55:09.405Z,1536.00
2018-04-02T05:56:09.384Z,1536.00
2018-04-02T05:57:09.369Z,1680.00
2018-04-02T05:58:09.507Z,1784.00
2018-04-02T05:59:09.321Z,1980.00
2018-04-02T06:00:09.289Z,2652.00
2018-04-02T06:01:09.296Z,3132.00
2018-04-02T06:02:09.248Z,3144.00
2018-04-02T06:03:09.233Z,3124.00
2018-04-02T06:04:09.206Z,3000.00
2018-04-02T06:05:09.233Z,3000.00
2018-04-02T06:06:09.221Z,3160.00
2018-04-02T06:07:09.136Z,3368.00
2018-04-02T06:08:09.116Z,3424.00
2018-04-02T06:09:09.165Z,3652.00
2018-04-02T06:10:09.076Z,3828.00
2018-04-02T06:11:09.049Z,3904.00
2018-04-02T06:12:09.037Z,4056.00
2018-04-02T06:13:09.006Z,4268.00
2018-04-02T06:14:08.989Z,4332.00
2018-04-02T06:15:08.966Z,4848.00
2018-04-02T06:16:08.999Z,4996.00
2018-04-02T06:17:08.918Z,5068.00
2018-04-02T06:18:08.897Z,5324.00
2018-04-02T06:19:08.876Z,5572.00
2018-04-02T06:20:08.856Z,5908.00
2018-04-02T06:21:08.835Z,6212.00
2018-04-02T06:22:08.811Z,6252.00
2018-04-02T06:23:08.790Z,6188.00
2018-04-02T06:24:08.768Z,6232.00
2018-04-02T06:25:08.761Z,6292.00
2018-04-02T06:26:08.727Z,6256.00
2018-04-02T06:27:08.721Z,6096.00
2018-04-02T06:28:08.712Z,5756.00
2018-04-02T06:29:08.660Z,5344.00
2018-04-02T06:30:08.641Z,5052.00
2018-04-02T06:31:08.625Z,4888.00
2018-04-02T06:32:08.599Z,4784.00
2018-04-02T06:33:08.576Z,4900.00
2018-04-02T06:34:08.559Z,5156.00
2018-04-02T06:35:08.534Z,5648.00
2018-04-02T06:36:08.522Z,6296.00
2018-04-02T06:37:08.529Z,6964.00
2018-04-02T06:38:08.470Z,7560.00
2018-04-02T06:39:08.446Z,8276.00
2018-04-02T06:40:08.428Z,9128.00
2018-04-02T06:41:08.406Z,10324.00
2018-04-02T06:42:08.385Z,10948.00
2018-04-02T06:43:08.362Z,10328.00
2018-04-02T06:44:08.355Z,9640.00
2018-04-02T06:45:08.363Z,9116.00
2018-04-02T06:46:08.303Z,8044.00
2018-04-02T06:47:08.282Z,7024.00
2018-04-02T06:48:08.263Z,6512.00
2018-04-02T06:49:08.243Z,6440.00
2018-04-02T06:50:08.217Z,6316.00
2018-04-02T06:51:08.216Z,5828.00
2018-04-02T06:52:08.176Z,5496.00
2018-04-02T06:53:08.166Z,5560.00
2018-04-02T06:54:08.137Z,5940.00
2018-04-02T06:55:08.114Z,6436.00
2018-04-02T06:56:08.096Z,6908.00
2018-04-02T06:57:08.075Z,7240.00
2018-04-02T06:58:08.118Z,7672.00
2018-04-02T06:59:08.031Z,7964.00
2018-04-02T07:00:08.011Z,8156.00
2018-04-02T07:01:07.992Z,8476.00
2018-04-02T07:02:07.977Z,8936.00
2018-04-02T07:03:07.949Z,9288.00
2018-04-02T07:04:07.929Z,9392.00
2018-04-02T07:05:07.909Z,9388.00
2018-04-02T07:06:07.890Z,9440.00
2018-04-02T07:07:07.994Z,9600.00
2018-04-02T07:08:07.845Z,9628.00
2018-04-02T07:09:07.825Z,9768.00
2018-04-02T07:10:07.909Z,9996.00
2018-04-02T07:11:07.782Z,10308.00
2018-04-02T07:12:07.765Z,10808.00
2018-04-02T07:13:07.744Z,11472.00
2018-04-02T07:14:07.723Z,12128.00
2018-04-02T07:15:07.699Z,12568.00
2018-04-02T07:16:07.679Z,12800.00
2018-04-02T07:17:07.658Z,12996.00
2018-04-02T07:18:07.639Z,13016.00
2018-04-02T07:19:07.618Z,12652.00
2018-04-02T07:20:07.603Z,12064.00
2018-04-02T07:21:07.580Z,11488.00
2018-04-02T07:22:07.558Z,10932.00
2018-04-02T07:23:07.570Z,10356.00
2018-04-02T07:24:07.517Z,9920.00
2018-04-02T07:25:07.498Z,9568.00
2018-04-02T07:26:07.481Z,9468.00
2018-04-02T07:27:07.458Z,9664.00
2018-04-02T07:28:07.441Z,9916.00
2018-04-02T07:29:07.438Z,10020.00
2018-04-02T07:30:07.397Z,9960.00
2018-04-02T07:31:07.375Z,9644.00
2018-04-02T07:32:07.356Z,9344.00
2018-04-02T07:33:07.338Z,9272.00
2018-04-02T07:34:07.320Z,9252.00
2018-04-02T07:35:07.299Z,9272.00
2018-04-02T07:36:07.277Z,9464.00
2018-04-02T07:37:07.266Z,9988.00
2018-04-02T07:38:07.239Z,10856.00
2018-04-02T07:39:07.319Z,12516.00
2018-04-02T07:40:07.202Z,14620.00
2018-04-02T07:41:07.183Z,16704.00
2018-04-02T07:42:07.159Z,20160.00
2018-04-02T07:43:07.155Z,23264.00
2018-04-02T07:44:07.149Z,23744.00
2018-04-02T07:45:07.117Z,27392.00
2018-04-02T07:46:07.078Z,30080.00
2018-04-02T07:47:07.065Z,25920.00
2018-04-02T07:48:07.046Z,24704.00
2018-04-02T07:49:07.100Z,26784.00
2018-04-02T07:50:07.003Z,26592.00
2018-04-02T07:51:06.985Z,26240.00
2018-04-02T07:52:07.002Z,27680.00
2018-04-02T07:53:06.945Z,26048.00
2018-04-02T07:54:06.926Z,24416.00
2018-04-02T07:55:06.964Z,23840.00
2018-04-02T07:56:06.889Z,25344.00
2018-04-02T07:57:06.941Z,23232.00
2018-04-02T07:58:06.854Z,22720.00
2018-04-02T07:59:06.838Z,22176.00
2018-04-02T08:00:06.830Z,21504.00
2018-04-02T08:01:06.805Z,20416.00
2018-04-02T08:02:06.799Z,19744.00
2018-04-02T08:03:06.787Z,19520.00
2018-04-02T08:04:06.749Z,19840.00
2018-04-02T08:05:06.733Z,20704.00
2018-04-02T08:06:06.715Z,23776.00
2018-04-02T08:07:06.698Z,23840.00
2018-04-02T08:08:06.676Z,24800.00
2018-04-02T08:09:06.662Z,27584.00
2018-04-02T08:10:06.646Z,27520.00
2018-04-02T08:11:06.626Z,26496.00
2018-04-02T08:12:06.673Z,29120.00
2018-04-02T08:13:06.593Z,27040.00
2018-04-02T08:14:06.574Z,25856.00
2018-04-02T08:15:06.594Z,23616.00
2018-04-02T08:16:06.553Z,23680.00
2018-04-02T08:17:06.523Z,25504.00
2018-04-02T08:18:06.520Z,26784.00
2018-04-02T08:19:06.620Z,28768.00
2018-04-02T08:20:06.482Z,32352.00
2018-04-02T08:21:06.454Z,36384.00
2018-04-02T08:22:06.473Z,35488.00
2018-04-02T08:23:06.429Z,29888.00
2018-04-02T08:24:06.404Z,29696.00
2018-04-02T08:25:06.391Z,28064.00
2018-04-02T08:26:06.381Z,28544.00
2018-04-02T08:27:06.359Z,28064.00
2018-04-02T08:28:06.353Z,26880.00
2018-04-02T08:29:06.325Z,24352.00
2018-04-02T08:30:06.310Z,24160.00
2018-04-02T08:31:06.307Z,25728.00
2018-04-02T08:32:06.275Z,29856.00
2018-04-02T08:33:06.258Z,27776.00
2018-04-02T08:34:06.246Z,27872.00
2018-04-02T08:35:06.229Z,37120.00
2018-04-02T08:36:06.216Z,42848.00
2018-04-02T08:37:06.200Z,33856.00
2018-04-02T08:38:06.230Z,32352.00
2018-04-02T08:39:06.164Z,37696.00
2018-04-02T08:40:06.174Z,32128.00
2018-04-02T08:41:06.139Z,27872.00
2018-04-02T08:42:06.121Z,27040.00
2018-04-02T08:43:06.109Z,29760.00
2018-04-02T08:44:06.090Z,25728.00
2018-04-02T08:45:06.110Z,26880.00
2018-04-02T08:46:06.061Z,31488.00
2018-04-02T08:47:06.052Z,32736.00
2018-04-02T08:48:06.041Z,28896.00
2018-04-02T08:49:06.017Z,24576.00
2018-04-02T08:50:06.003Z,23296.00
2018-04-02T08:51:05.993Z,22624.00
2018-04-02T08:52:05.978Z,21760.00
2018-04-02T08:53:05.957Z,21024.00
2018-04-02T08:54:05.957Z,19840.00
2018-04-02T08:55:05.932Z,18976.00
2018-04-02T08:56:05.916Z,19296.00
2018-04-02T08:57:05.902Z,20480.00
2018-04-02T08:58:05.888Z,21728.00
2018-04-02T08:59:05.872Z,23584.00
2018-04-02T09:00:05.878Z,25728.00
2018-04-02T09:01:05.863Z,26688.00
2018-04-02T09:02:05.830Z,28032.00
2018-04-02T09:03:05.821Z,28672.00
2018-04-02T09:04:05.801Z,29952.00
2018-04-02T09:05:05.787Z,32960.00
2018-04-02T09:06:05.768Z,33728.00
2018-04-02T09:07:05.760Z,29856.00
2018-04-02T09:08:05.738Z,30688.00
2018-04-02T09:09:05.725Z,32352.00
2018-04-02T09:10:05.750Z,32128.00
2018-04-02T09:11:05.706Z,31072.00
2018-04-02T09:12:05.681Z,31680.00
2018-04-02T09:13:05.669Z,29408.00
2018-04-02T09:14:05.658Z,30912.00
2018-04-02T09:15:05.638Z,29824.00
2018-04-02T09:16:05.624Z,28704.00
2018-04-02T09:17:05.619Z,29248.00
2018-04-02T09:18:05.598Z,28864.00
2018-04-02T09:19:05.591Z,28992.00
2018-04-02T09:20:05.578Z,28544.00
2018-04-02T09:21:05.565Z,30048.00
2018-04-02T09:22:05.543Z,31520.00
2018-04-02T09:23:05.524Z,31520.00
2018-04-02T09:24:05.513Z,31200.00
2018-04-02T09:25:05.501Z,31872.00
2018-04-02T09:26:05.487Z,36736.00
2018-04-02T09:27:05.479Z,35584.00
2018-04-02T09:28:05.468Z,33600.00
2018-04-02T09:29:05.444Z,35136.00
2018-04-02T09:30:05.428Z,32256.00
2018-04-02T09:31:05.432Z,29728.00
2018-04-02T09:32:05.398Z,31424.00
2018-04-02T09:33:05.384Z,34624.00
2018-04-02T09:34:05.374Z,33920.00
2018-04-02T09:35:05.400Z,38016.00
2018-04-02T09:36:05.345Z,33760.00
2018-04-02T09:37:05.334Z,36352.00
2018-04-02T09:38:05.316Z,38880.00
2018-04-02T09:39:05.302Z,39488.00
2018-04-02T09:40:05.291Z,38400.00
2018-04-02T09:41:05.277Z,39424.00
2018-04-02T09:42:05.272Z,37888.00
2018-04-02T09:43:05.251Z,38560.00
2018-04-02T09:44:05.237Z,36352.00
2018-04-02T09:45:05.223Z,36672.00
2018-04-02T09:46:05.214Z,37184.00
2018-04-02T09:47:05.203Z,33152.00
2018-04-02T09:48:05.248Z,31168.00
2018-04-02T09:49:05.179Z,30592.00
2018-04-02T09:50:05.159Z,33760.00
2018-04-02T09:51:05.144Z,37472.00
2018-04-02T09:52:05.140Z,43520.00
2018-04-02T09:53:05.129Z,34240.00
2018-04-02T09:54:05.191Z,29344.00
2018-04-02T09:55:05.101Z,28032.00
2018-04-02T09:56:05.080Z,28000.00
2018-04-02T09:57:05.073Z,27680.00
2018-04-02T09:58:05.058Z,24576.00
2018-04-02T09:59:05.038Z,21952.00
2018-04-02T10:00:05.029Z,18464.00
2018-04-02T10:01:05.025Z,17248.00
2018-04-02T10:02:05.004Z,17088.00
2018-04-02T10:03:04.992Z,17696.00
2018-04-02T10:04:04.975Z,18528.00
2018-04-02T10:05:05.105Z,19072.00
2018-04-02T10:06:04.953Z,18720.00
2018-04-02T10:07:04.941Z,18624.00
2018-04-02T10:08:04.919Z,18368.00
2018-04-02T10:09:04.913Z,18080.00
2018-04-02T10:10:04.949Z,18752.00
2018-04-02T10:11:04.873Z,19648.00
2018-04-02T10:12:04.863Z,20320.00
2018-04-02T10:13:04.858Z,21472.00
2018-04-02T10:14:04.840Z,22368.00
2018-04-02T10:15:04.818Z,23232.00
2018-04-02T10:16:04.811Z,24320.00
2018-04-02T10:17:04.789Z,21024.00
2018-04-02T10:18:04.782Z,20608.00
2018-04-02T10:19:04.759Z,21920.00
2018-04-02T10:20:04.740Z,22080.00
2018-04-02T10:21:04.741Z,22176.00
2018-04-02T10:22:04.712Z,23616.00
2018-04-02T10:23:04.698Z,25568.00
2018-04-02T10:24:04.781Z,28576.00
2018-04-02T10:25:04.667Z,29376.00
2018-04-02T10:26:04.653Z,32928.00
2018-04-02T10:27:04.652Z,45504.00
2018-04-02T10:28:04.620Z,47680.00
2018-04-02T10:29:04.605Z,39488.00
2018-04-02T10:30:04.672Z,45952.00
2018-04-02T10:31:04.613Z,41376.00
2018-04-02T10:32:04.565Z,45056.00
2018-04-02T10:33:04.547Z,51776.00
2018-04-02T10:34:04.536Z,54144.00
2018-04-02T10:35:04.518Z,72512.00
2018-04-02T10:36:04.506Z,42688.00
2018-04-02T10:37:04.499Z,38688.00
2018-04-02T10:38:04.482Z,45728.00
2018-04-02T10:39:04.465Z,38528.00
2018-04-02T10:40:04.450Z,43520.00
2018-04-02T10:41:04.435Z,41248.00
2018-04-02T10:42:04.424Z,47040.00
2018-04-02T10:43:04.405Z,51456.00
2018-04-02T10:44:04.396Z,54016.00
2018-04-02T10:45:04.384Z,31008.00
2018-04-02T10:46:04.377Z,40480.00
2018-04-02T10:47:04.374Z,46048.00
2018-04-02T10:48:04.349Z,43744.00
2018-04-02T10:49:04.387Z,41504.00
2018-04-02T10:50:04.320Z,39904.00
2018-04-02T10:51:04.304Z,41088.00
2018-04-02T10:52:04.295Z,47936.00
2018-04-02T10:53:04.293Z,50080.00
2018-04-02T10:54:04.272Z,45920.00
2018-04-02T10:55:04.260Z,43712.00
2018-04-02T10:56:04.246Z,42592.00
2018-04-02T10:57:04.238Z,44480.00
2018-04-02T10:58:04.229Z,46272.00
2018-04-02T10:59:04.223Z,45440.00
2018-04-02T11:00:04.199Z,56928.00
2018-04-02T11:01:04.190Z,60896.00
2018-04-02T11:02:04.183Z,62176.00
2018-04-02T11:03:04.164Z,53152.00
2018-04-02T11:04:04.262Z,34656.00
2018-04-02T11:05:04.150Z,61216.00
2018-04-02T11:06:04.133Z,70272.00
2018-04-02T11:07:04.223Z,65632.00
2018-04-02T11:08:04.111Z,73440.00
2018-04-02T11:09:04.101Z,55584.00
2018-04-02T11:10:04.091Z,50496.00
2018-04-02T11:11:04.078Z,44000.00
2018-04-02T11:12:04.066Z,50464.00
2018-04-02T11:13:04.057Z,50816.00
2018-04-02T11:14:04.059Z,53600.00
2018-04-02T11:15:04.036Z,53504.00
2018-04-02T11:16:04.037Z,47744.00
2018-04-02T11:17:04.025Z,37856.00
2018-04-02T11:18:04.012Z,50176.00
2018-04-02T11:19:03.997Z,46080.00
2018-04-02T11:20:04.150Z,34944.00
2018-04-02T11:21:03.984Z,25504.00
2018-04-02T11:22:03.966Z,23296.00
2018-04-02T11:23:03.949Z,23296.00
2018-04-02T11:24:03.941Z,28736.00
2018-04-02T11:25:03.940Z,25056.00
2018-04-02T11:26:03.920Z,18720.00
2018-04-02T11:27:03.923Z,16336.00
2018-04-02T11:28:03.898Z,15884.00
2018-04-02T11:29:03.883Z,16204.00
2018-04-02T11:30:03.871Z,16804.00
2018-04-02T11:31:03.859Z,17952.00
2018-04-02T11:32:03.848Z,22912.00
2018-04-02T11:33:03.934Z,27872.00
2018-04-02T11:34:03.821Z,23136.00
2018-04-02T11:35:03.806Z,21280.00
2018-04-02T11:36:03.804Z,20096.00
2018-04-02T11:37:03.780Z,18368.00
2018-04-02T11:38:03.768Z,15608.00
2018-04-02T11:39:03.754Z,13692.00
2018-04-02T11:40:03.739Z,12956.00
2018-04-02T11:41:03.726Z,13264.00
2018-04-02T11:42:03.718Z,14412.00
2018-04-02T11:43:03.698Z,14596.00
2018-04-02T11:44:03.705Z,13272.00
2018-04-02T11:45:03.672Z,11140.00
2018-04-02T11:46:03.664Z,9892.00
2018-04-02T11:47:03.647Z,10420.00
2018-04-02T11:48:03.629Z,12092.00
2018-04-02T11:49:03.631Z,13380.00
2018-04-02T11:50:03.608Z,14892.00
2018-04-02T11:51:03.586Z,14308.00
2018-04-02T11:52:03.591Z,14756.00
2018-04-02T11:53:03.558Z,17696.00
2018-04-02T11:54:03.552Z,22240.00
2018-04-02T11:55:03.533Z,22624.00
2018-04-02T11:56:03.515Z,20672.00
2018-04-02T11:57:03.499Z,18048.00
2018-04-02T11:58:03.485Z,15688.00
2018-04-02T11:59:03.468Z,13544.00
2018-04-02T12:00:03.454Z,12208.00
2018-04-02T12:01:03.439Z,12664.00
2018-04-02T12:02:03.427Z,14624.00
2018-04-02T12:03:03.413Z,15860.00
2018-04-02T12:04:03.398Z,15284.00
2018-04-02T12:05:03.390Z,13436.00
2018-04-02T12:06:03.374Z,11988.00
2018-04-02T12:07:03.363Z,10724.00
2018-04-02T12:08:03.336Z,9956.00
2018-04-02T12:09:03.325Z,9864.00
2018-04-02T12:10:03.311Z,9964.00
2018-04-02T12:11:03.293Z,9756.00
2018-04-02T12:12:03.282Z,10204.00
2018-04-02T12:13:03.430Z,11860.00
2018-04-02T12:14:03.245Z,13424.00
2018-04-02T12:15:03.232Z,14976.00
2018-04-02T12:16:03.251Z,17152.00
2018-04-02T12:17:03.206Z,18208.00
2018-04-02T12:18:03.187Z,18592.00
2018-04-02T12:19:03.173Z,18144.00
2018-04-02T12:20:03.158Z,17248.00
2018-04-02T12:21:03.200Z,15804.00
2018-04-02T12:22:03.134Z,14336.00
2018-04-02T12:23:03.116Z,13828.00
2018-04-02T12:24:03.098Z,13880.00